August 11, 2022

Time Code Weather Temp. Visibility Ceiling Wind METAR/SPECI
03:00
V
17 °C 10 km+ - 060° 060° 6 kt METAR FMEP 102300Z AUTO 06006KT 9999 FEW048 17/11 Q1023
02:30
V
18 °C 10 km+ - 080° 080° 9 kt METAR FMEP 102230Z AUTO 08009KT 030V110 9999 FEW024 18/13 Q1023
02:00
V
19 °C 10 km+ - 100° 100° 13 - 27 kt METAR FMEP 102200Z AUTO 10013G27KT 070V130 9999 FEW032 SCT046 19/14 Q1024
01:30
V
19 °C 10 km+ - 080° 080° 8 kt METAR FMEP 102130Z AUTO 08008KT 030V120 9999 FEW036 19/13 Q1024
01:00
V
20 °C 10 km+ 4,700 ft 100° 100° 12 kt METAR FMEP 102100Z AUTO 10012KT 9999 FEW032 BKN047 20/14 Q1024
00:30
V
19 °C 10 km+ - 110° 110° 17 kt METAR FMEP 102030Z AUTO 11017KT 070V140 9999 FEW037 19/14 Q1024
00:00
V
19 °C 10 km+ - 080° 080° 12 kt METAR FMEP 102000Z AUTO 08012KT 040V120 9999 FEW038 19/14 Q1024

August 10, 2022

Time Code Weather Temp. Visibility Ceiling Wind METAR/SPECI
23:30
V
20 °C 10 km+ - 110° 110° 18 kt METAR FMEP 101930Z AUTO 11018KT CAVOK 20/14 Q1024
23:00
V
19 °C 10 km+ - 110° 110° 16 kt METAR FMEP 101900Z AUTO 11016KT 9999 FEW054 19/14 Q1024
22:30
V
19 °C 10 km+ - 120° 120° 25 - 38 kt METAR FMEP 101830Z AUTO 12025G38KT 9999 FEW056 19/14 Q1023
22:00
V
20 °C 10 km+ - 100° 100° 18 - 31 kt METAR FMEP 101800Z AUTO 10018G31KT 9999 FEW050 20/12 Q1024
21:30
V
19 °C 10 km+ - 110° 110° 24 kt METAR FMEP 101730Z AUTO 11024KT CAVOK 19/14 Q1023
21:00
V
20 °C 10 km+ - 110° 110° 20 - 31 kt METAR FMEP 101700Z AUTO 11020G31KT CAVOK 20/14 Q1023
20:30
V
20 °C 10 km+ - 100° 100° 18 - 30 kt METAR FMEP 101630Z AUTO 10018G30KT CAVOK 20/13 Q1023
20:00
V
20 °C 10 km+ - 110° 110° 22 kt METAR FMEP 101600Z AUTO 11022KT CAVOK 20/12 Q1023
19:30
V
20 °C 10 km+ - 110° 110° 22 kt METAR FMEP 101530Z AUTO 11022KT CAVOK 20/13 Q1022
19:00
V
21 °C 10 km+ - 120° 120° 29 kt METAR FMEP 101500Z AUTO 12029KT CAVOK 21/13 Q1022 NOSIG
18:30
V
21 °C 10 km+ - 120° 120° 26 kt METAR FMEP 101430Z AUTO 12026KT CAVOK 21/13 Q1022 NOSIG
18:00
V
21 °C 10 km+ - 120° 120° 27 kt METAR FMEP 101400Z AUTO 12027KT CAVOK 21/13 Q1021 NOSIG
17:30
V
22 °C 10 km+ - 110° 110° 27 - 37 kt METAR FMEP 101330Z AUTO 11027G37KT CAVOK 22/12 Q1021 BECMG 13030KT
17:00
V
22 °C 10 km+ - 120° 120° 29 - 40 kt METAR FMEP 101300Z AUTO 12029G40KT CAVOK 22/13 Q1021 BECMG 13030KT
16:30
V
22 °C 10 km+ - 120° 120° 28 kt METAR FMEP 101230Z AUTO 12028KT CAVOK 22/12 Q1021 NOSIG
16:00
V
23 °C 10 km+ - 120° 120° 29 - 39 kt METAR FMEP 101200Z AUTO 12029G39KT CAVOK 23/13 Q1021 BECMG 13030KT
15:30
V
23 °C 10 km+ - 120° 120° 30 - 42 kt METAR FMEP 101130Z AUTO 12030G42KT CAVOK 23/14 Q1021 BECMG 13030KT
15:00
V
23 °C 10 km+ - 120° 120° 30 kt METAR FMEP 101100Z AUTO 12030KT CAVOK 23/12 Q1021 TEMPO 13030G40KT
14:30
V
23 °C 10 km+ - 120° 120° 31 kt METAR FMEP 101030Z AUTO 12031KT CAVOK 23/13 Q1021 TEMPO 13030G40KT
14:00
V
23 °C 10 km+ - 120° 120° 32 kt METAR FMEP 101000Z AUTO 12032KT CAVOK 23/12 Q1021 TEMPO 13030G40KT
13:30
V
23 °C 10 km+ - 120° 120° 30 - 42 kt METAR FMEP 100930Z AUTO 12030G42KT CAVOK 23/12 Q1021 NOSIG
13:00
V
23 °C 10 km+ - 120° 120° 31 kt METAR FMEP 100900Z AUTO 12031KT CAVOK 23/14 Q1022 TEMPO 13030G40KT
12:30
V
23 °C 10 km+ - 120° 120° 31 kt METAR FMEP 100830Z AUTO 12031KT CAVOK 23/13 Q1022 TEMPO 13030G40KT
12:00
V
23 °C 10 km+ - 120° 120° 29 kt METAR FMEP 100800Z AUTO 12029KT CAVOK 23/13 Q1022 TEMPO 12025G35KT
11:30
V
23 °C 10 km+ - 130° 130° 31 kt METAR FMEP 100730Z AUTO 13031KT CAVOK 23/14 Q1023 TEMPO 12025G35KT
11:00
V
23 °C 10 km+ - 110° 110° 29 kt METAR FMEP 100700Z AUTO 11029KT CAVOK 23/10 Q1023 TEMPO 12025G35KT
10:30
V
23 °C 10 km+ - 120° 120° 29 kt METAR FMEP 100630Z AUTO 12029KT CAVOK 23/13 Q1023 TEMPO 12025G35KT
10:00
V
22 °C 10 km+ - 120° 120° 25 - 40 kt METAR FMEP 100600Z AUTO 12025G40KT CAVOK 22/15 Q1024 BECMG 12025KT
09:30
V
22 °C 10 km+ - 120° 120° 27 kt METAR FMEP 100530Z AUTO 12027KT CAVOK 22/11 Q1024 NOSIG
09:00
V
21 °C 10 km+ - 110° 110° 24 kt METAR FMEP 100500Z AUTO 11024KT CAVOK 21/12 Q1024 BECMG 12030G40KT
08:30
V
21 °C 10 km+ - 120° 120° 22 kt METAR FMEP 100430Z AUTO 12022KT CAVOK 21/12 Q1023 BECMG 12030G40KT
08:00
V
20 °C 10 km+ - 110° 110° 23 kt METAR FMEP 100400Z AUTO 11023KT 9999 FEW049 20/12 Q1024 BECMG 12030G40KT
07:30
V
19 °C 10 km+ - 120° 120° 25 kt METAR FMEP 100330Z AUTO 12025KT 9999 FEW029 SCT048 19/14 Q1023 BECMG 12030G40KT
07:00
V
19 °C 10 km+ - 120° 120° 24 - 35 kt METAR FMEP 100300Z AUTO 12024G35KT 9999 FEW047 19/12 Q1023 BECMG 11020KT
06:30
V
19 °C 10 km+ - 110° 110° 20 kt METAR FMEP 100230Z AUTO 11020KT 9999 FEW037 19/12 Q1023 NOSIG
06:00
V
20 °C 10 km+ - 110° 110° 18 - 30 kt METAR FMEP 100200Z AUTO 11018G30KT 9999 FEW035 SCT047 20/12 Q1023
05:30
V
19 °C 10 km+ - 110° 110° 17 kt METAR FMEP 100130Z AUTO 11017KT 9999 FEW035 19/13 Q1022
05:00
V
19 °C 10 km+ 4,600 ft 110° 110° 22 kt METAR FMEP 100100Z AUTO 11022KT 9999 FEW038 BKN046 19/13 Q1022
04:30
V
19 °C 10 km+ 4,900 ft 100° 100° 12 kt METAR FMEP 100030Z AUTO 10012KT 9999 FEW031 SCT043 BKN049 19/13 Q1022
04:00
V
19 °C 10 km+ 4,100 ft 100° 100° 15 kt METAR FMEP 100000Z AUTO 10015KT 9999 SCT031 BKN041 BKN049 19/14 Q1022
03:30
V
19 °C 10 km+ - 100° 100° 13 kt METAR FMEP 092330Z AUTO 10013KT 060V120 9999 FEW028 SCT052 19/13 Q1022
03:00
V
19 °C 10 km+ - 100° 100° 12 kt METAR FMEP 092300Z AUTO 10012KT 9999 SCT046 SCT052 19/13 Q1022
02:30
V
20 °C 10 km+ 5,200 ft 100° 100° 13 kt METAR FMEP 092230Z AUTO 10013KT 9999 BKN052 20/13 Q1023
02:00
V
19 °C 10 km+ 5,200 ft 090° 090° 13 kt METAR FMEP 092200Z AUTO 09013KT 9999 FEW037 BKN052 19/12 Q1023
01:30
V
20 °C 10 km+ - 100° 100° 15 kt METAR FMEP 092130Z AUTO 10015KT 9999 FEW042 20/11 Q1023
01:00
V
20 °C 10 km+ 5,000 ft 100° 100° 16 kt METAR FMEP 092100Z AUTO 10016KT 9999 FEW042 BKN050 20/12 Q1023
00:30
V
20 °C 10 km+ 4,900 ft 100° 100° 13 kt METAR FMEP 092030Z AUTO 10013KT 9999 FEW038 BKN049 20/13 Q1023
00:00
V
20 °C 10 km+ 4,300 ft 100° 100° 11 kt METAR FMEP 092000Z AUTO 10011KT 9999 BKN043 20/12 Q1023

August 9, 2022

Time Code Weather Temp. Visibility Ceiling Wind METAR/SPECI
23:30
V
20 °C 10 km+ 4,300 ft 100° 100° 13 kt METAR FMEP 091930Z AUTO 10013KT 9999 OVC043 20/12 Q1024
23:00
V
20 °C 10 km+ 3,900 ft 100° 100° 11 kt METAR FMEP 091900Z AUTO 10011KT 9999 BKN039 OVC046 20/13 Q1024
22:30
V
20 °C 10 km+ 4,400 ft 090° 090° 10 kt METAR FMEP 091830Z AUTO 09010KT 9999 FEW036 BKN044 20/13 Q1024
22:00
V
20 °C 10 km+ 3,900 ft 100° 100° 11 kt METAR FMEP 091800Z AUTO 10011KT 070V130 9999 OVC039 20/14 Q1024
21:30
V
21 °C 10 km+ 3,600 ft 120° 120° 18 kt METAR FMEP 091730Z AUTO 12018KT 9999 BKN036 OVC044 21/14 Q1024
21:00
V
20 °C 10 km+ 3,200 ft 100° 100° 10 kt METAR FMEP 091700Z AUTO 10010KT 9999 BKN032 BKN040 BKN048 20/15 Q1024
20:30
V
20 °C 10 km+ - 090° 090° 9 kt METAR FMEP 091630Z AUTO 09009KT 9999 FEW031 20/14 Q1024
20:00
V
20 °C 10 km+ 4,000 ft 100° 100° 11 kt METAR FMEP 091600Z AUTO 10011KT 9999 SCT031 BKN040 20/15 Q1023
19:30
V
21 °C 10 km+ 3,200 ft 110° 110° 13 kt METAR FMEP 091530Z AUTO 11013KT 9999 FEW026 BKN032 BKN038 21/15 Q1023
19:00
V
21 °C 10 km+ 4,000 ft 110° 110° 15 kt METAR FMEP 091500Z AUTO 11015KT 9999 FEW027 BKN040 21/15 Q1023 NOSIG
18:30
M
21 °C 10 km+ 2,800 ft 110° 110° 15 kt METAR FMEP 091430Z AUTO 11015KT 9999 BKN028 BKN035 21/15 Q1023 NOSIG
18:00
M
21 °C 10 km+ 2,800 ft 120° 120° 19 kt METAR FMEP 091400Z AUTO 12019KT 9999 BKN028 BKN035 OVC044 21/15 Q1023 TEMPO 4500 SHRA SCT030TCU
17:30
V
22 °C 10 km+ 3,400 ft 120° 120° 19 kt METAR FMEP 091330Z AUTO 12019KT 9999 SCT027 BKN034 BKN040 22/15 Q1022 TEMPO 4500 SHRA SCT030TCU
17:00
M
22 °C 10 km+ 2,600 ft 130° 130° 21 kt METAR FMEP 091300Z AUTO 13021KT 9999 BKN026 BKN033 BKN046 22/16 Q1022 TEMPO 4500 SHRA SCT030TCU
16:30
M
22 °C 10 km+ 2,800 ft 130° 130° 21 kt METAR FMEP 091230Z AUTO 13021KT 9999 BKN028 BKN035 BKN042 22/16 Q1022 TEMPO 4500 SHRA SCT030TCU
16:00
M
22 °C 10 km+ 2,500 ft 120° 120° 22 kt METAR FMEP 091200Z AUTO 12022KT 9999 BKN025 OVC031 22/17 Q1022 TEMPO 4500 SHRA SCT030TCU
15:30
M
23 °C 10 km+ 2,300 ft 130° 130° 23 kt METAR FMEP 091130Z AUTO 13023KT 9999 BKN023 OVC036 23/17 Q1021 TEMPO 3000 SHRA SCT025TCU
15:00
M
22 °C 10 km+ 2,100 ft 130° 130° 22 kt METAR FMEP 091100Z AUTO 13022KT 9999 BKN021 BKN026 BKN039 22/18 Q1021 TEMPO 3000 SHRA SCT025TCU
14:30
M
23 °C 10 km+ 2,800 ft 130° 130° 23 kt METAR FMEP 091030Z AUTO 13023KT 9999 SCT023 BKN028 BKN038 23/18 Q1022 TEMPO 3000 SHRA SCT025TCU
14:00
V
22 °C 10 km+ 3,800 ft 130° 130° 21 kt METAR FMEP 091000Z AUTO 13021KT 9999 SCT022 BKN038 OVC048 22/18 Q1022 TEMPO 3000 SHRA SCT025TCU
13:30
V
24 °C 10 km+ 3,200 ft 120° 120° 23 kt METAR FMEP 090930Z AUTO 12023KT 9999 FEW021 SCT026 BKN032 24/17 Q1022 TEMPO 3000 SHRA SCT025TCU
13:00
V
22 °C 10 km+ 3,400 ft 130° 130° 22 kt METAR FMEP 090900Z AUTO 13022KT 9999 FEW019 SCT026 BKN034 22/19 Q1022 TEMPO 3000 SHRA SCT025TCU
12:30
V
25 °C 10 km+ - 130° 130° 22 kt METAR FMEP 090830Z AUTO 13022KT 9999 FEW016 SCT070 25/19 Q1022 TEMPO 3000 SHRA SCT025TCU
12:00
V
25 °C 10 km+ - 130° 130° 18 kt METAR FMEP 090800Z AUTO 13018KT CAVOK 25/18 Q1022 TEMPO 13016G30KT 3000 SHRA SCT026TCU
11:30
V
25 °C 10 km+ - 120° 120° 18 kt METAR FMEP 090730Z AUTO 12018KT CAVOK 25/18 Q1023 TEMPO 13016G30KT 3000 SHRA SCT026TCU
11:00
V
25 °C 10 km+ - 130° 130° 18 kt METAR FMEP 090700Z AUTO 13018KT CAVOK 25/18 Q1023 TEMPO 13016G30KT 3000 SHRA SCT026TCU
10:30
V
24 °C 10 km+ 5,400 ft 130° 130° 19 kt METAR FMEP 090630Z AUTO 13019KT 9999 FEW024 SCT045 BKN054 24/17 Q1023 TEMPO 13016G30KT 3000 SHRA SCT026TCU
10:00
V
24 °C 10 km+ - 140° 140° 21 kt METAR FMEP 090600Z AUTO 14021KT 9999 FEW034 SCT060 24/18 Q1023 TEMPO 4000 SHRA FEW030TCU BKN036 BECMG 13022G35KT
09:30
V
24 °C 10 km+ - 120° 120° 15 kt METAR FMEP 090530Z AUTO 12015KT CAVOK 24/17 Q1023 TEMPO 4000 SHRA FEW030TCU BKN036 BECMG 13022G35KT
09:00
V
24 °C 10 km+ - 120° 120° 14 kt METAR FMEP 090500Z AUTO 12014KT CAVOK 24/16 Q1023 TEMPO 4000 SHRA FEW030TCU BKN036
08:30
V
23 °C 10 km+ - 110° 110° 11 kt METAR FMEP 090430Z AUTO 11011KT CAVOK 23/16 Q1023 TEMPO 4000 SHRA FEW030TCU BKN036
08:00
V
21 °C 10 km+ - 070° 070° 5 kt METAR FMEP 090400Z AUTO 07005KT 040V110 CAVOK 21/12 Q1023 BECMG 12020KT
07:30
V
19 °C 10 km+ - 060° 060° 6 kt METAR FMEP 090330Z AUTO 06006KT CAVOK 19/12 Q1022 BECMG 12020KT
07:00
V
18 °C 10 km+ - 070° 070° 6 kt METAR FMEP 090300Z AUTO 07006KT CAVOK 18/12 Q1022 BECMG 12020KT
06:30
V
18 °C 10 km+ - 070° 070° 6 kt METAR FMEP 090230Z AUTO 07006KT 040V100 CAVOK 18/10 Q1022 BECMG 12020KT
06:00
V
18 °C 10 km+ - 060° 060° 6 kt METAR FMEP 090200Z AUTO 06006KT CAVOK 18/09 Q1022
05:30
V
18 °C 10 km+ - 060° 060° 7 kt METAR FMEP 090130Z AUTO 06007KT CAVOK 18/10 Q1022
05:00
V
18 °C 10 km+ - 060° 060° 7 kt METAR FMEP 090100Z AUTO 06007KT CAVOK 18/10 Q1022
04:30
V
18 °C 10 km+ - 070° 070° 6 kt METAR FMEP 090030Z AUTO 07006KT CAVOK 18/10 Q1022
04:00
V
18 °C 10 km+ - 050° 050° 8 kt METAR FMEP 090000Z AUTO 05008KT CAVOK 18/10 Q1022
03:30
V
18 °C 10 km+ - 060° 060° 6 kt METAR FMEP 082330Z AUTO 06006KT CAVOK 18/11 Q1022
03:00
V
18 °C 10 km+ - 070° 070° 8 kt METAR FMEP 082300Z AUTO 07008KT CAVOK 18/12 Q1022
02:30
V
18 °C 10 km+ - 070° 070° 6 kt METAR FMEP 082230Z AUTO 07006KT CAVOK 18/12 Q1022
02:00
V
18 °C 10 km+ - 060° 060° 7 kt METAR FMEP 082200Z AUTO 06007KT CAVOK 18/12 Q1022
01:30
V
18 °C 10 km+ - 060° 060° 8 kt METAR FMEP 082130Z AUTO 06008KT CAVOK 18/12 Q1022
01:00
V
18 °C 10 km+ - 060° 060° 7 kt METAR FMEP 082100Z AUTO 06007KT CAVOK 18/13 Q1023
00:30
V
19 °C 10 km+ - 060° 060° 7 kt METAR FMEP 082030Z AUTO 06007KT CAVOK 19/14 Q1023
00:00
V
19 °C 10 km+ - 080° 080° 5 kt METAR FMEP 082000Z AUTO 08005KT CAVOK 19/15 Q1023

August 8, 2022

Time Code Weather Temp. Visibility Ceiling Wind METAR/SPECI
23:30
V
19 °C 10 km+ - 070° 070° 7 kt METAR FMEP 081930Z AUTO 07007KT CAVOK 19/14 Q1023
23:00
V
19 °C 10 km+ - 060° 060° 5 kt METAR FMEP 081900Z AUTO 06005KT 040V100 CAVOK 19/15 Q1023
22:30
V
19 °C 10 km+ - 070° 070° 6 kt METAR FMEP 081830Z AUTO 07006KT CAVOK 19/15 Q1023
22:00
V
19 °C 10 km+ - 070° 070° 6 kt METAR FMEP 081800Z AUTO 07006KT CAVOK 19/15 Q1023
21:30
V
19 °C 10 km+ - 060° 060° 5 kt METAR FMEP 081730Z AUTO 06005KT 9999 FEW023 19/14 Q1023
21:00
V
19 °C 10 km+ - 070° 070° 5 kt METAR FMEP 081700Z AUTO 07005KT 9999 FEW024 19/15 Q1023
20:30
V
20 °C 10 km+ - 070° 070° 5 kt METAR FMEP 081630Z AUTO 07005KT CAVOK 20/16 Q1023
20:00
V
21 °C 10 km+ - 090° 090° 7 kt METAR FMEP 081600Z AUTO 09007KT CAVOK 21/17 Q1022
19:30
V
21 °C 10 km+ - 100° 100° 7 kt METAR FMEP 081530Z AUTO 10007KT CAVOK 21/17 Q1022 NOSIG
19:00
V
22 °C 10 km+ - 120° 120° 12 kt METAR FMEP 081500Z AUTO 12012KT CAVOK 22/18 Q1022 NOSIG
Older data

We and third parties follow your internet behavior on our website with cookies. If you continue, we assume you agree with our cookie policy. Learn more